sensor_id;sensor_type;location;lat;lon;timestamp;temperature;humidity
67005;HTU21D;53920;51.094;5.902;2023-09-07T00:01:30;18.15;71.79
67005;HTU21D;53920;51.094;5.902;2023-09-07T00:03:56;18.14;71.91
67005;HTU21D;53920;51.094;5.902;2023-09-07T00:06:22;18.10;72.03
67005;HTU21D;53920;51.094;5.902;2023-09-07T00:08:48;18.06;72.13
67005;HTU21D;53920;51.094;5.902;2023-09-07T00:11:14;18.02;72.25
67005;HTU21D;53920;51.094;5.902;2023-09-07T00:13:40;17.98;72.49
67005;HTU21D;53920;51.094;5.902;2023-09-07T00:16:06;17.95;72.77
67005;HTU21D;53920;51.094;5.902;2023-09-07T00:18:33;17.93;72.77
67005;HTU21D;53920;51.094;5.902;2023-09-07T00:21:00;17.90;73.03
67005;HTU21D;53920;51.094;5.902;2023-09-07T00:23:26;17.89;73.15
67005;HTU21D;53920;51.094;5.902;2023-09-07T00:25:52;17.89;73.15
67005;HTU21D;53920;51.094;5.902;2023-09-07T00:28:18;17.90;73.13
67005;HTU21D;53920;51.094;5.902;2023-09-07T00:30:44;17.90;73.12
67005;HTU21D;53920;51.094;5.902;2023-09-07T00:33:10;17.90;73.12
67005;HTU21D;53920;51.094;5.902;2023-09-07T00:35:37;17.89;73.31
67005;HTU21D;53920;51.094;5.902;2023-09-07T00:38:03;17.89;73.33
67005;HTU21D;53920;51.094;5.902;2023-09-07T00:40:30;17.90;73.28
67005;HTU21D;53920;51.094;5.902;2023-09-07T00:42:56;17.89;73.21
67005;HTU21D;53920;51.094;5.902;2023-09-07T00:45:22;17.88;73.22
67005;HTU21D;53920;51.094;5.902;2023-09-07T00:47:48;17.85;73.10
67005;HTU21D;53920;51.094;5.902;2023-09-07T00:50:14;17.82;73.13
67005;HTU21D;53920;51.094;5.902;2023-09-07T00:52:43;17.79;72.98
67005;HTU21D;53920;51.094;5.902;2023-09-07T00:55:09;17.77;72.81
67005;HTU21D;53920;51.094;5.902;2023-09-07T00:57:37;17.73;72.81
67005;HTU21D;53920;51.094;5.902;2023-09-07T01:00:06;17.70;72.95
67005;HTU21D;53920;51.094;5.902;2023-09-07T01:02:33;17.67;72.98
67005;HTU21D;53920;51.094;5.902;2023-09-07T01:05:01;17.65;72.93
67005;HTU21D;53920;51.094;5.902;2023-09-07T01:07:35;17.61;73.03
67005;HTU21D;53920;51.094;5.902;2023-09-07T01:10:03;17.56;73.28
67005;HTU21D;53920;51.094;5.902;2023-09-07T01:12:30;17.54;73.46
67005;HTU21D;53920;51.094;5.902;2023-09-07T01:14:56;17.52;73.57
67005;HTU21D;53920;51.094;5.902;2023-09-07T01:17:21;17.51;73.56
67005;HTU21D;53920;51.094;5.902;2023-09-07T01:19:49;17.50;73.58
67005;HTU21D;53920;51.094;5.902;2023-09-07T01:22:17;17.48;73.59
67005;HTU21D;53920;51.094;5.902;2023-09-07T01:24:45;17.45;73.48
67005;HTU21D;53920;51.094;5.902;2023-09-07T01:27:12;17.44;73.30
67005;HTU21D;53920;51.094;5.902;2023-09-07T01:29:41;17.39;73.21
67005;HTU21D;53920;51.094;5.902;2023-09-07T01:32:07;17.38;73.15
67005;HTU21D;53920;51.094;5.902;2023-09-07T01:34:36;17.35;73.25
67005;HTU21D;53920;51.094;5.902;2023-09-07T01:37:02;17.32;73.28
67005;HTU21D;53920;51.094;5.902;2023-09-07T01:39:28;17.29;73.44
67005;HTU21D;53920;51.094;5.902;2023-09-07T01:41:54;17.25;73.67
67005;HTU21D;53920;51.094;5.902;2023-09-07T01:44:20;17.21;73.66
67005;HTU21D;53920;51.094;5.902;2023-09-07T01:46:46;17.19;73.38
67005;HTU21D;53920;51.094;5.902;2023-09-07T01:49:12;17.18;73.26
67005;HTU21D;53920;51.094;5.902;2023-09-07T01:51:37;17.15;73.10
67005;HTU21D;53920;51.094;5.902;2023-09-07T01:54:03;17.13;73.06
67005;HTU21D;53920;51.094;5.902;2023-09-07T01:56:30;17.08;73.11
67005;HTU21D;53920;51.094;5.902;2023-09-07T01:58:56;17.04;73.12
67005;HTU21D;53920;51.094;5.902;2023-09-07T02:01:31;17.02;73.22
67005;HTU21D;53920;51.094;5.902;2023-09-07T02:03:57;16.98;73.34
67005;HTU21D;53920;51.094;5.902;2023-09-07T02:06:23;16.93;73.46
67005;HTU21D;53920;51.094;5.902;2023-09-07T02:08:49;16.91;73.50
67005;HTU21D;53920;51.094;5.902;2023-09-07T02:11:15;16.87;73.45
67005;HTU21D;53920;51.094;5.902;2023-09-07T02:13:42;16.84;73.44
67005;HTU21D;53920;51.094;5.902;2023-09-07T02:16:08;16.81;73.29
67005;HTU21D;53920;51.094;5.902;2023-09-07T02:18:36;16.74;73.25
67005;HTU21D;53920;51.094;5.902;2023-09-07T02:21:04;16.67;73.35
67005;HTU21D;53920;51.094;5.902;2023-09-07T02:23:31;16.63;73.62
67005;HTU21D;53920;51.094;5.902;2023-09-07T02:25:59;16.59;73.93
67005;HTU21D;53920;51.094;5.902;2023-09-07T02:28:26;16.57;74.28
67005;HTU21D;53920;51.094;5.902;2023-09-07T02:30:52;16.57;74.51
67005;HTU21D;53920;51.094;5.902;2023-09-07T02:33:19;16.55;74.41
67005;HTU21D;53920;51.094;5.902;2023-09-07T02:35:45;16.52;74.42
67005;HTU21D;53920;51.094;5.902;2023-09-07T02:38:11;16.49;74.57
67005;HTU21D;53920;51.094;5.902;2023-09-07T02:40:42;16.49;74.47
67005;HTU21D;53920;51.094;5.902;2023-09-07T02:43:09;16.47;74.45
67005;HTU21D;53920;51.094;5.902;2023-09-07T02:45:35;16.49;74.51
67005;HTU21D;53920;51.094;5.902;2023-09-07T02:48:03;16.48;74.80
67005;HTU21D;53920;51.094;5.902;2023-09-07T02:50:31;16.48;75.01
67005;HTU21D;53920;51.094;5.902;2023-09-07T02:52:57;16.49;75.11
67005;HTU21D;53920;51.094;5.902;2023-09-07T02:55:23;16.50;75.08
67005;HTU21D;53920;51.094;5.902;2023-09-07T02:57:50;16.49;74.95
67005;HTU21D;53920;51.094;5.902;2023-09-07T03:00:16;16.48;74.70
67005;HTU21D;53920;51.094;5.902;2023-09-07T03:02:44;16.47;74.57
67005;HTU21D;53920;51.094;5.902;2023-09-07T03:05:10;16.46;74.33
67005;HTU21D;53920;51.094;5.902;2023-09-07T03:07:37;16.44;74.29
67005;HTU21D;53920;51.094;5.902;2023-09-07T03:10:05;16.41;74.32
67005;HTU21D;53920;51.094;5.902;2023-09-07T03:12:31;16.39;74.34
67005;HTU21D;53920;51.094;5.902;2023-09-07T03:14:57;16.40;74.33
67005;HTU21D;53920;51.094;5.902;2023-09-07T03:17:24;16.36;74.51
67005;HTU21D;53920;51.094;5.902;2023-09-07T03:19:50;16.35;74.48
67005;HTU21D;53920;51.094;5.902;2023-09-07T03:22:17;16.33;74.57
67005;HTU21D;53920;51.094;5.902;2023-09-07T03:24:43;16.33;74.60
67005;HTU21D;53920;51.094;5.902;2023-09-07T03:27:09;16.30;74.67
67005;HTU21D;53920;51.094;5.902;2023-09-07T03:29:36;16.29;74.75
67005;HTU21D;53920;51.094;5.902;2023-09-07T03:32:03;16.25;74.67
67005;HTU21D;53920;51.094;5.902;2023-09-07T03:34:30;16.21;74.71
67005;HTU21D;53920;51.094;5.902;2023-09-07T03:36:55;16.20;74.86
67005;HTU21D;53920;51.094;5.902;2023-09-07T03:39:21;16.21;75.05
67005;HTU21D;53920;51.094;5.902;2023-09-07T03:41:48;16.21;75.44
67005;HTU21D;53920;51.094;5.902;2023-09-07T03:44:14;16.24;75.60
67005;HTU21D;53920;51.094;5.902;2023-09-07T03:46:41;16.25;75.73
67005;HTU21D;53920;51.094;5.902;2023-09-07T03:49:07;16.24;75.70
67005;HTU21D;53920;51.094;5.902;2023-09-07T03:51:34;16.25;75.44
67005;HTU21D;53920;51.094;5.902;2023-09-07T03:54:00;16.25;75.25
67005;HTU21D;53920;51.094;5.902;2023-09-07T03:56:26;16.24;75.07
67005;HTU21D;53920;51.094;5.902;2023-09-07T03:58:52;16.19;75.09
67005;HTU21D;53920;51.094;5.902;2023-09-07T04:01:18;16.17;75.27
67005;HTU21D;53920;51.094;5.902;2023-09-07T04:03:44;16.15;75.46
67005;HTU21D;53920;51.094;5.902;2023-09-07T04:06:11;16.12;75.54
67005;HTU21D;53920;51.094;5.902;2023-09-07T04:08:37;16.10;75.51
67005;HTU21D;53920;51.094;5.902;2023-09-07T04:11:04;16.08;75.53
67005;HTU21D;53920;51.094;5.902;2023-09-07T04:13:35;16.08;75.47
67005;HTU21D;53920;51.094;5.902;2023-09-07T04:16:01;16.07;75.57
67005;HTU21D;53920;51.094;5.902;2023-09-07T04:18:28;16.05;75.64
67005;HTU21D;53920;51.094;5.902;2023-09-07T04:21:04;16.04;75.86
67005;HTU21D;53920;51.094;5.902;2023-09-07T04:23:31;16.03;76.17
67005;HTU21D;53920;51.094;5.902;2023-09-07T04:26:24;16.05;76.47
67005;HTU21D;53920;51.094;5.902;2023-09-07T04:28:50;16.07;76.76
67005;HTU21D;53920;51.094;5.902;2023-09-07T04:31:16;16.12;76.84
67005;HTU21D;53920;51.094;5.902;2023-09-07T04:33:41;16.15;76.93
67005;HTU21D;53920;51.094;5.902;2023-09-07T04:36:12;16.18;77.27
67005;HTU21D;53920;51.094;5.902;2023-09-07T04:38:41;16.21;77.40
67005;HTU21D;53920;51.094;5.902;2023-09-07T04:41:07;16.24;77.43
67005;HTU21D;53920;51.094;5.902;2023-09-07T04:43:34;16.27;77.50
67005;HTU21D;53920;51.094;5.902;2023-09-07T04:46:01;16.27;77.63
67005;HTU21D;53920;51.094;5.902;2023-09-07T04:48:27;16.31;77.73
67005;HTU21D;53920;51.094;5.902;2023-09-07T04:50:59;16.35;77.72
67005;HTU21D;53920;51.094;5.902;2023-09-07T04:53:28;16.37;77.83
67005;HTU21D;53920;51.094;5.902;2023-09-07T04:55:54;16.43;77.92
67005;HTU21D;53920;51.094;5.902;2023-09-07T04:58:20;16.49;77.97
67005;HTU21D;53920;51.094;5.902;2023-09-07T05:00:46;16.55;77.90
67005;HTU21D;53920;51.094;5.902;2023-09-07T05:03:12;16.58;77.80
67005;HTU21D;53920;51.094;5.902;2023-09-07T05:05:38;16.62;77.69
67005;HTU21D;53920;51.094;5.902;2023-09-07T05:08:05;16.64;77.60
67005;HTU21D;53920;51.094;5.902;2023-09-07T05:10:35;16.67;77.57
67005;HTU21D;53920;51.094;5.902;2023-09-07T05:13:01;16.69;77.54
67005;HTU21D;53920;51.094;5.902;2023-09-07T05:15:27;16.71;77.51
67005;HTU21D;53920;51.094;5.902;2023-09-07T05:17:54;16.73;77.39
67005;HTU21D;53920;51.094;5.902;2023-09-07T05:20:20;16.74;77.20
67005;HTU21D;53920;51.094;5.902;2023-09-07T05:22:47;16.75;77.15
67005;HTU21D;53920;51.094;5.902;2023-09-07T05:25:14;16.76;77.07
67005;HTU21D;53920;51.094;5.902;2023-09-07T05:27:40;16.75;77.02
67005;HTU21D;53920;51.094;5.902;2023-09-07T05:30:06;16.76;77.11
67005;HTU21D;53920;51.094;5.902;2023-09-07T05:32:33;16.76;77.11
67005;HTU21D;53920;51.094;5.902;2023-09-07T05:34:59;16.77;77.03
67005;HTU21D;53920;51.094;5.902;2023-09-07T05:37:26;16.80;76.95
67005;HTU21D;53920;51.094;5.902;2023-09-07T05:39:51;16.80;76.92
67005;HTU21D;53920;51.094;5.902;2023-09-07T05:42:19;16.81;76.83
67005;HTU21D;53920;51.094;5.902;2023-09-07T05:44:45;16.84;76.63
67005;HTU21D;53920;51.094;5.902;2023-09-07T05:47:11;16.85;76.62
67005;HTU21D;53920;51.094;5.902;2023-09-07T05:49:37;16.85;76.53
67005;HTU21D;53920;51.094;5.902;2023-09-07T05:52:03;16.86;76.47
67005;HTU21D;53920;51.094;5.902;2023-09-07T05:54:29;16.86;76.36
67005;HTU21D;53920;51.094;5.902;2023-09-07T05:56:55;16.87;76.47
67005;HTU21D;53920;51.094;5.902;2023-09-07T05:59:21;16.89;76.55
67005;HTU21D;53920;51.094;5.902;2023-09-07T06:01:47;16.90;76.60
67005;HTU21D;53920;51.094;5.902;2023-09-07T06:04:13;16.91;76.56
67005;HTU21D;53920;51.094;5.902;2023-09-07T06:06:39;16.95;76.50
67005;HTU21D;53920;51.094;5.902;2023-09-07T06:09:05;16.98;76.37
67005;HTU21D;53920;51.094;5.902;2023-09-07T06:11:30;17.01;76.31
67005;HTU21D;53920;51.094;5.902;2023-09-07T06:13:59;17.03;76.28
67005;HTU21D;53920;51.094;5.902;2023-09-07T06:16:25;17.07;76.33
67005;HTU21D;53920;51.094;5.902;2023-09-07T06:18:51;17.09;76.20
67005;HTU21D;53920;51.094;5.902;2023-09-07T06:21:17;17.16;76.28
67005;HTU21D;53920;51.094;5.902;2023-09-07T06:23:43;17.18;76.36
67005;HTU21D;53920;51.094;5.902;2023-09-07T06:26:09;17.23;76.37
67005;HTU21D;53920;51.094;5.902;2023-09-07T06:28:35;17.28;76.47
67005;HTU21D;53920;51.094;5.902;2023-09-07T06:31:01;17.34;76.49
67005;HTU21D;53920;51.094;5.902;2023-09-07T06:33:28;17.41;76.44
67005;HTU21D;53920;51.094;5.902;2023-09-07T06:35:54;17.49;76.38
67005;HTU21D;53920;51.094;5.902;2023-09-07T06:38:21;17.56;76.31
67005;HTU21D;53920;51.094;5.902;2023-09-07T06:40:48;17.67;76.24
67005;HTU21D;53920;51.094;5.902;2023-09-07T06:43:15;17.77;76.13
67005;HTU21D;53920;51.094;5.902;2023-09-07T06:45:42;17.89;75.97
67005;HTU21D;53920;51.094;5.902;2023-09-07T06:48:07;18.00;75.82
67005;HTU21D;53920;51.094;5.902;2023-09-07T06:50:33;18.13;75.66
67005;HTU21D;53920;51.094;5.902;2023-09-07T06:52:59;18.25;75.39
67005;HTU21D;53920;51.094;5.902;2023-09-07T06:55:25;18.40;74.94
67005;HTU21D;53920;51.094;5.902;2023-09-07T06:57:53;18.53;74.55
67005;HTU21D;53920;51.094;5.902;2023-09-07T07:00:20;18.67;74.15
67005;HTU21D;53920;51.094;5.902;2023-09-07T07:02:46;18.80;73.87
67005;HTU21D;53920;51.094;5.902;2023-09-07T07:05:12;18.92;73.67
67005;HTU21D;53920;51.094;5.902;2023-09-07T07:07:39;19.08;73.27
67005;HTU21D;53920;51.094;5.902;2023-09-07T07:10:06;19.24;73.07
67005;HTU21D;53920;51.094;5.902;2023-09-07T07:12:32;19.40;72.67
67005;HTU21D;53920;51.094;5.902;2023-09-07T07:15:04;19.57;72.31
67005;HTU21D;53920;51.094;5.902;2023-09-07T13:57:33;36.78;25.66
67005;HTU21D;53920;51.094;5.902;2023-09-07T13:59:59;36.56;25.39
67005;HTU21D;53920;51.094;5.902;2023-09-07T14:02:28;36.53;26.32
67005;HTU21D;53920;51.094;5.902;2023-09-07T14:04:54;36.49;25.92
67005;HTU21D;53920;51.094;5.902;2023-09-07T14:07:20;36.26;26.44
67005;HTU21D;53920;51.094;5.902;2023-09-07T14:09:46;36.28;26.55
67005;HTU21D;53920;51.094;5.902;2023-09-07T14:12:12;36.47;26.22
67005;HTU21D;53920;51.094;5.902;2023-09-07T14:14:38;36.67;26.51
67005;HTU21D;53920;51.094;5.902;2023-09-07T14:17:04;36.92;25.74
67005;HTU21D;53920;51.094;5.902;2023-09-07T14:19:31;37.27;25.42
67005;HTU21D;53920;51.094;5.902;2023-09-07T14:21:57;37.49;24.54
67005;HTU21D;53920;51.094;5.902;2023-09-07T14:24:24;37.91;24.58
67005;HTU21D;53920;51.094;5.902;2023-09-07T14:26:50;38.32;23.91
67005;HTU21D;53920;51.094;5.902;2023-09-07T14:29:16;38.55;23.59
67005;HTU21D;53920;51.094;5.902;2023-09-07T14:31:42;38.67;23.53
67005;HTU21D;53920;51.094;5.902;2023-09-07T14:34:11;38.79;22.72
67005;HTU21D;53920;51.094;5.902;2023-09-07T14:36:37;38.69;22.92
67005;HTU21D;53920;51.094;5.902;2023-09-07T14:39:06;38.68;22.77
67005;HTU21D;53920;51.094;5.902;2023-09-07T14:41:33;38.68;22.68
67005;HTU21D;53920;51.094;5.902;2023-09-07T14:44:00;38.54;22.57
67005;HTU21D;53920;51.094;5.902;2023-09-07T14:46:26;38.44;22.79
67005;HTU21D;53920;51.094;5.902;2023-09-07T14:48:52;38.19;23.26
67005;HTU21D;53920;51.094;5.902;2023-09-07T14:51:18;38.10;23.87
67005;HTU21D;53920;51.094;5.902;2023-09-07T14:53:44;38.03;23.60
67005;HTU21D;53920;51.094;5.902;2023-09-07T14:56:12;37.85;23.38
67005;HTU21D;53920;51.094;5.902;2023-09-07T14:58:38;37.69;23.54
67005;HTU21D;53920;51.094;5.902;2023-09-07T15:01:04;37.61;24.13
67005;HTU21D;53920;51.094;5.902;2023-09-07T15:03:30;37.52;24.27
67005;HTU21D;53920;51.094;5.902;2023-09-07T15:05:57;37.49;24.11
67005;HTU21D;53920;51.094;5.902;2023-09-07T15:08:23;37.47;24.71
67005;HTU21D;53920;51.094;5.902;2023-09-07T15:10:49;37.48;24.62
67005;HTU21D;53920;51.094;5.902;2023-09-07T15:13:16;37.28;24.10
67005;HTU21D;53920;51.094;5.902;2023-09-07T15:15:42;37.05;23.48
67005;HTU21D;53920;51.094;5.902;2023-09-07T15:18:07;36.90;24.42
67005;HTU21D;53920;51.094;5.902;2023-09-07T15:20:34;36.72;23.73
67005;HTU21D;53920;51.094;5.902;2023-09-07T15:23:01;36.53;24.64
67005;HTU21D;53920;51.094;5.902;2023-09-07T15:25:27;36.40;25.57
67005;HTU21D;53920;51.094;5.902;2023-09-07T15:27:53;36.29;25.86
67005;HTU21D;53920;51.094;5.902;2023-09-07T15:30:19;36.07;26.39
67005;HTU21D;53920;51.094;5.902;2023-09-07T15:32:46;35.78;26.94
67005;HTU21D;53920;51.094;5.902;2023-09-07T15:35:12;35.47;27.55
67005;HTU21D;53920;51.094;5.902;2023-09-07T15:37:38;35.07;27.67
67005;HTU21D;53920;51.094;5.902;2023-09-07T15:40:07;34.73;27.62
67005;HTU21D;53920;51.094;5.902;2023-09-07T15:42:33;34.41;27.21
67005;HTU21D;53920;51.094;5.902;2023-09-07T15:44:58;34.18;27.57
67005;HTU21D;53920;51.094;5.902;2023-09-07T15:47:25;33.99;27.62
67005;HTU21D;53920;51.094;5.902;2023-09-07T15:49:52;33.77;28.28
67005;HTU21D;53920;51.094;5.902;2023-09-07T15:52:19;33.53;28.13
67005;HTU21D;53920;51.094;5.902;2023-09-07T15:54:45;33.35;28.98
67005;HTU21D;53920;51.094;5.902;2023-09-07T15:57:11;33.15;30.18
67005;HTU21D;53920;51.094;5.902;2023-09-07T15:59:37;32.99;31.38
67005;HTU21D;53920;51.094;5.902;2023-09-07T16:02:03;32.76;32.60
67005;HTU21D;53920;51.094;5.902;2023-09-07T16:04:29;32.56;33.22
67005;HTU21D;53920;51.094;5.902;2023-09-07T16:06:55;32.40;33.88
67005;HTU21D;53920;51.094;5.902;2023-09-07T16:09:21;32.23;34.73
67005;HTU21D;53920;51.094;5.902;2023-09-07T16:11:47;32.07;35.00
67005;HTU21D;53920;51.094;5.902;2023-09-07T16:14:12;31.93;35.19
67005;HTU21D;53920;51.094;5.902;2023-09-07T16:16:38;31.80;34.47
67005;HTU21D;53920;51.094;5.902;2023-09-07T16:19:05;31.70;33.79
67005;HTU21D;53920;51.094;5.902;2023-09-07T16:21:30;31.58;34.08
67005;HTU21D;53920;51.094;5.902;2023-09-07T16:23:56;31.45;34.66
67005;HTU21D;53920;51.094;5.902;2023-09-07T16:26:22;31.30;34.73
67005;HTU21D;53920;51.094;5.902;2023-09-07T16:28:48;31.19;33.55
67005;HTU21D;53920;51.094;5.902;2023-09-07T16:31:14;31.10;34.35
67005;HTU21D;53920;51.094;5.902;2023-09-07T16:33:41;30.97;33.51
67005;HTU21D;53920;51.094;5.902;2023-09-07T16:36:07;30.87;33.99
67005;HTU21D;53920;51.094;5.902;2023-09-07T16:38:33;30.79;33.29
67005;HTU21D;53920;51.094;5.902;2023-09-07T16:41:05;30.65;33.99
67005;HTU21D;53920;51.094;5.902;2023-09-07T16:43:32;30.52;33.79
67005;HTU21D;53920;51.094;5.902;2023-09-07T16:45:58;30.42;33.84
67005;HTU21D;53920;51.094;5.902;2023-09-07T16:48:25;30.32;35.05
67005;HTU21D;53920;51.094;5.902;2023-09-07T16:50:50;30.21;35.56
67005;HTU21D;53920;51.094;5.902;2023-09-07T16:53:16;30.07;35.31
67005;HTU21D;53920;51.094;5.902;2023-09-07T16:55:42;29.98;35.30
67005;HTU21D;53920;51.094;5.902;2023-09-07T16:58:08;29.88;35.63
67005;HTU21D;53920;51.094;5.902;2023-09-07T17:00:34;29.77;35.17
67005;HTU21D;53920;51.094;5.902;2023-09-07T17:03:00;29.73;35.36
67005;HTU21D;53920;51.094;5.902;2023-09-07T17:05:25;29.67;35.79
67005;HTU21D;53920;51.094;5.902;2023-09-07T17:07:51;29.56;36.34
67005;HTU21D;53920;51.094;5.902;2023-09-07T17:10:17;29.45;37.55
67005;HTU21D;53920;51.094;5.902;2023-09-07T17:12:43;29.31;38.10
67005;HTU21D;53920;51.094;5.902;2023-09-07T17:15:10;29.18;38.75
67005;HTU21D;53920;51.094;5.902;2023-09-07T17:17:36;29.04;39.93
67005;HTU21D;53920;51.094;5.902;2023-09-07T17:20:02;28.89;40.45
67005;HTU21D;53920;51.094;5.902;2023-09-07T17:22:29;28.76;40.94
67005;HTU21D;53920;51.094;5.902;2023-09-07T17:24:56;28.64;41.07
67005;HTU21D;53920;51.094;5.902;2023-09-07T17:27:22;28.53;41.65
67005;HTU21D;53920;51.094;5.902;2023-09-07T17:29:47;28.40;42.36
67005;HTU21D;53920;51.094;5.902;2023-09-07T17:32:14;28.28;42.29
67005;HTU21D;53920;51.094;5.902;2023-09-07T17:34:39;28.18;42.74
67005;HTU21D;53920;51.094;5.902;2023-09-07T17:37:05;28.08;43.09
67005;HTU21D;53920;51.094;5.902;2023-09-07T17:39:35;27.97;43.50
67005;HTU21D;53920;51.094;5.902;2023-09-07T17:42:02;27.86;44.08
67005;HTU21D;53920;51.094;5.902;2023-09-07T17:44:28;27.75;44.32
67005;HTU21D;53920;51.094;5.902;2023-09-07T17:46:54;27.63;44.99
67005;HTU21D;53920;51.094;5.902;2023-09-07T17:49:20;27.49;45.52
67005;HTU21D;53920;51.094;5.902;2023-09-07T17:51:46;27.35;46.16
67005;HTU21D;53920;51.094;5.902;2023-09-07T17:54:11;27.22;46.57
67005;HTU21D;53920;51.094;5.902;2023-09-07T17:56:37;27.10;46.67
67005;HTU21D;53920;51.094;5.902;2023-09-07T17:59:03;26.98;47.38
67005;HTU21D;53920;51.094;5.902;2023-09-07T18:01:29;26.85;47.40
67005;HTU21D;53920;51.094;5.902;2023-09-07T18:03:55;26.72;47.30
67005;HTU21D;53920;51.094;5.902;2023-09-07T18:06:21;26.61;47.24
67005;HTU21D;53920;51.094;5.902;2023-09-07T18:08:47;26.49;47.58
67005;HTU21D;53920;51.094;5.902;2023-09-07T18:11:14;26.36;47.60
67005;HTU21D;53920;51.094;5.902;2023-09-07T18:13:44;26.23;47.88
67005;HTU21D;53920;51.094;5.902;2023-09-07T18:16:10;26.11;47.93
67005;HTU21D;53920;51.094;5.902;2023-09-07T18:18:36;25.99;48.44
67005;HTU21D;53920;51.094;5.902;2023-09-07T18:21:08;25.86;49.05
67005;HTU21D;53920;51.094;5.902;2023-09-07T18:23:35;25.74;49.35
67005;HTU21D;53920;51.094;5.902;2023-09-07T18:26:01;25.63;49.65
67005;HTU21D;53920;51.094;5.902;2023-09-07T18:28:27;25.53;50.20
67005;HTU21D;53920;51.094;5.902;2023-09-07T18:30:52;25.39;50.46
67005;HTU21D;53920;51.094;5.902;2023-09-07T18:33:18;25.30;50.73
67005;HTU21D;53920;51.094;5.902;2023-09-07T18:35:44;25.19;51.30
67005;HTU21D;53920;51.094;5.902;2023-09-07T18:38:10;25.09;51.30
67005;HTU21D;53920;51.094;5.902;2023-09-07T18:40:36;25.02;51.30
67005;HTU21D;53920;51.094;5.902;2023-09-07T18:43:02;24.97;51.23
67005;HTU21D;53920;51.094;5.902;2023-09-07T18:45:27;24.94;51.37
67005;HTU21D;53920;51.094;5.902;2023-09-07T18:47:53;24.88;50.96
67005;HTU21D;53920;51.094;5.902;2023-09-07T18:50:20;24.86;51.09
67005;HTU21D;53920;51.094;5.902;2023-09-07T18:52:49;24.82;51.41
67005;HTU21D;53920;51.094;5.902;2023-09-07T18:55:16;24.77;51.41
67005;HTU21D;53920;51.094;5.902;2023-09-07T18:57:45;24.70;51.60
67005;HTU21D;53920;51.094;5.902;2023-09-07T19:00:12;24.68;51.40
67005;HTU21D;53920;51.094;5.902;2023-09-07T19:02:41;24.65;51.30
67005;HTU21D;53920;51.094;5.902;2023-09-07T19:05:07;24.72;51.35
67005;HTU21D;53920;51.094;5.902;2023-09-07T19:07:33;24.63;51.49
67005;HTU21D;53920;51.094;5.902;2023-09-07T19:10:00;24.58;51.43
67005;HTU21D;53920;51.094;5.902;2023-09-07T19:12:26;24.53;51.60
67005;HTU21D;53920;51.094;5.902;2023-09-07T19:14:52;24.49;51.72
67005;HTU21D;53920;51.094;5.902;2023-09-07T19:17:18;24.45;51.70
67005;HTU21D;53920;51.094;5.902;2023-09-07T19:19:50;24.41;52.11
67005;HTU21D;53920;51.094;5.902;2023-09-07T19:22:20;24.35;52.20
67005;HTU21D;53920;51.094;5.902;2023-09-07T19:24:49;24.30;52.54
67005;HTU21D;53920;51.094;5.902;2023-09-07T19:27:15;24.25;52.82
67005;HTU21D;53920;51.094;5.902;2023-09-07T19:30:06;24.18;53.14
67005;HTU21D;53920;51.094;5.902;2023-09-07T19:32:36;24.21;52.74
67005;HTU21D;53920;51.094;5.902;2023-09-07T19:35:03;24.18;52.94
67005;HTU21D;53920;51.094;5.902;2023-09-07T19:37:32;24.08;53.18
67005;HTU21D;53920;51.094;5.902;2023-09-07T19:39:58;24.03;53.18
67005;HTU21D;53920;51.094;5.902;2023-09-07T19:42:24;24.02;52.92
67005;HTU21D;53920;51.094;5.902;2023-09-07T19:44:51;23.98;53.18
67005;HTU21D;53920;51.094;5.902;2023-09-07T19:47:17;23.95;53.22
67005;HTU21D;53920;51.094;5.902;2023-09-07T19:49:43;23.90;53.33
67005;HTU21D;53920;51.094;5.902;2023-09-07T19:52:09;23.87;53.02
67005;HTU21D;53920;51.094;5.902;2023-09-07T19:54:36;23.94;52.47
67005;HTU21D;53920;51.094;5.902;2023-09-07T19:57:02;23.95;53.12
67005;HTU21D;53920;51.094;5.902;2023-09-07T19:59:28;23.92;52.85
67005;HTU21D;53920;51.094;5.902;2023-09-07T20:02:00;23.95;53.09
67005;HTU21D;53920;51.094;5.902;2023-09-07T20:04:28;23.92;52.89
67005;HTU21D;53920;51.094;5.902;2023-09-07T20:06:54;23.89;53.34
67005;HTU21D;53920;51.094;5.902;2023-09-07T20:09:21;23.82;53.67
67005;HTU21D;53920;51.094;5.902;2023-09-07T20:11:48;23.71;54.21
67005;HTU21D;53920;51.094;5.902;2023-09-07T20:14:14;23.64;54.04
67005;HTU21D;53920;51.094;5.902;2023-09-07T20:16:41;23.56;54.37
67005;HTU21D;53920;51.094;5.902;2023-09-07T20:19:07;23.52;54.20
67005;HTU21D;53920;51.094;5.902;2023-09-07T20:21:33;23.49;54.22
67005;HTU21D;53920;51.094;5.902;2023-09-07T20:23:59;23.44;54.23
67005;HTU21D;53920;51.094;5.902;2023-09-07T20:26:26;23.42;54.28
67005;HTU21D;53920;51.094;5.902;2023-09-07T20:28:52;23.46;54.33
67005;HTU21D;53920;51.094;5.902;2023-09-07T20:31:19;23.42;54.34
67005;HTU21D;53920;51.094;5.902;2023-09-07T20:33:45;23.39;54.01
67005;HTU21D;53920;51.094;5.902;2023-09-07T20:36:11;23.45;53.65
67005;HTU21D;53920;51.094;5.902;2023-09-07T20:38:37;23.50;53.45
67005;HTU21D;53920;51.094;5.902;2023-09-07T20:41:04;23.51;53.58
67005;HTU21D;53920;51.094;5.902;2023-09-07T20:43:30;23.53;53.39
67005;HTU21D;53920;51.094;5.902;2023-09-07T20:45:56;23.54;53.19
67005;HTU21D;53920;51.094;5.902;2023-09-07T20:48:23;23.54;53.24
67005;HTU21D;53920;51.094;5.902;2023-09-07T20:50:49;23.50;53.65
67005;HTU21D;53920;51.094;5.902;2023-09-07T20:53:17;23.46;53.48
67005;HTU21D;53920;51.094;5.902;2023-09-07T20:55:43;23.44;53.61
67005;HTU21D;53920;51.094;5.902;2023-09-07T20:58:10;23.38;53.88
67005;HTU21D;53920;51.094;5.902;2023-09-07T21:00:36;23.38;53.68
67005;HTU21D;53920;51.094;5.902;2023-09-07T21:03:02;23.36;54.14
67005;HTU21D;53920;51.094;5.902;2023-09-07T21:05:28;23.32;54.24
67005;HTU21D;53920;51.094;5.902;2023-09-07T21:07:54;23.28;54.46
67005;HTU21D;53920;51.094;5.902;2023-09-07T21:10:22;23.24;54.99
67005;HTU21D;53920;51.094;5.902;2023-09-07T21:12:48;23.20;54.94
67005;HTU21D;53920;51.094;5.902;2023-09-07T21:15:14;23.17;54.93
67005;HTU21D;53920;51.094;5.902;2023-09-07T21:17:42;23.17;54.83
67005;HTU21D;53920;51.094;5.902;2023-09-07T21:20:10;23.12;55.32
67005;HTU21D;53920;51.094;5.902;2023-09-07T21:22:39;23.02;55.78
67005;HTU21D;53920;51.094;5.902;2023-09-07T21:25:05;22.93;56.05
67005;HTU21D;53920;51.094;5.902;2023-09-07T21:27:33;22.85;55.71
67005;HTU21D;53920;51.094;5.902;2023-09-07T21:29:59;22.88;55.90
67005;HTU21D;53920;51.094;5.902;2023-09-07T21:32:25;22.83;56.19
67005;HTU21D;53920;51.094;5.902;2023-09-07T21:34:51;22.81;56.36
67005;HTU21D;53920;51.094;5.902;2023-09-07T21:37:17;22.73;56.78
67005;HTU21D;53920;51.094;5.902;2023-09-07T21:39:47;22.67;56.77
67005;HTU21D;53920;51.094;5.902;2023-09-07T21:42:15;22.62;57.31
67005;HTU21D;53920;51.094;5.902;2023-09-07T21:44:41;22.50;57.58
67005;HTU21D;53920;51.094;5.902;2023-09-07T21:47:07;22.40;58.10
67005;HTU21D;53920;51.094;5.902;2023-09-07T21:49:34;22.32;58.71
67005;HTU21D;53920;51.094;5.902;2023-09-07T21:52:00;22.22;59.33